Huvudsida
METAR-TAF:

METAR-TAF

Flygplatser :

Dhahran, Saudiarabien

latitud: 26-16N, longitud: 050-09E, höjd: 26 m

Aktuellt väderrapport

Denna rapport gjordes för 12 minuter sedan, klockan 21:00 UTC
Vind 3 kt från ost
Temperatur 29°C
Fuktighet 52%
Tryck 1008 hPa
Sikt 10 km eller mer
Inga moln under 1 500 m eller inga cumulonimbus

METAR: OEDR 212100Z 10003KT CAVOK 29/18 Q1008 NOSIG

Tid: 00:12 (21:12 UTC)

Väderprognos

Denna rapport gjordes för 6 timmar och 17 minuter sedan, klockan 14:55 UTC
Prognos gäller från 21 kl. 18 UTC till 22 kl. 24 UTC
Vind 10 kt från syd
Sikt: 8000 m
Blir
från 22 kl. 06 UTC till 22 kl. 08 UTC
Vind 10 kt från väst/nordväst i byarna ända upp till 20 kt
Sikt: 6000 m

TAF: OEDR 211455Z 2118/2224 19010KT 8000 NSC BECMG 2206/2208 29010G20KT 6000

Aktuella väderrapporter och prognoser från 4000 flygplatser (METAR- och TAF-rapporter).

De tillgängliga stationerna syns som gula och röda prickar på kartan.

För musen över prickarna för att se namnen på stationerna.

Klicka sedan för att få väderrapporter och prognoser.

För att ändra kartan: Klicka på de gröna knapparna med ett svart kors på för att zooma in; den gröna knappen med ett streck på för att zooma ut; eller på de gröna pilarna för angränsande kartor.


METAR-TAF: